sensor_id;sensor_type;location;lat;lon;timestamp;temperature;humidity
3134;DHT22;1577;49.912;10.924;2024-02-14T00:02:07;3.20;99.90
3134;DHT22;1577;49.912;10.924;2024-02-14T00:04:33;3.20;99.90
3134;DHT22;1577;49.912;10.924;2024-02-14T00:06:59;3.20;99.90
3134;DHT22;1577;49.912;10.924;2024-02-14T00:09:24;3.20;99.90
3134;DHT22;1577;49.912;10.924;2024-02-14T00:11:50;3.20;99.90
3134;DHT22;1577;49.912;10.924;2024-02-14T00:14:16;3.20;99.90
3134;DHT22;1577;49.912;10.924;2024-02-14T00:16:41;3.30;99.90
3134;DHT22;1577;49.912;10.924;2024-02-14T00:19:07;3.30;99.90
3134;DHT22;1577;49.912;10.924;2024-02-14T00:21:33;3.30;99.90
3134;DHT22;1577;49.912;10.924;2024-02-14T00:24:00;3.30;99.90
3134;DHT22;1577;49.912;10.924;2024-02-14T00:26:27;3.30;99.90
3134;DHT22;1577;49.912;10.924;2024-02-14T00:28:52;3.30;99.90
3134;DHT22;1577;49.912;10.924;2024-02-14T00:31:18;3.40;99.90
3134;DHT22;1577;49.912;10.924;2024-02-14T00:33:43;3.40;99.90
3134;DHT22;1577;49.912;10.924;2024-02-14T00:36:11;3.50;99.90
3134;DHT22;1577;49.912;10.924;2024-02-14T00:38:37;3.40;99.90
3134;DHT22;1577;49.912;10.924;2024-02-14T00:41:03;3.40;99.90
3134;DHT22;1577;49.912;10.924;2024-02-14T00:43:28;3.40;99.90
3134;DHT22;1577;49.912;10.924;2024-02-14T00:45:54;3.40;99.90
3134;DHT22;1577;49.912;10.924;2024-02-14T00:48:22;3.40;99.90
3134;DHT22;1577;49.912;10.924;2024-02-14T00:50:48;3.40;99.90
3134;DHT22;1577;49.912;10.924;2024-02-14T00:53:13;3.40;99.90
3134;DHT22;1577;49.912;10.924;2024-02-14T00:55:39;3.40;99.90
3134;DHT22;1577;49.912;10.924;2024-02-14T00:58:05;3.50;99.90
3134;DHT22;1577;49.912;10.924;2024-02-14T01:00:30;3.50;99.90
3134;DHT22;1577;49.912;10.924;2024-02-14T01:02:57;3.50;99.90
3134;DHT22;1577;49.912;10.924;2024-02-14T01:05:23;3.50;99.90
3134;DHT22;1577;49.912;10.924;2024-02-14T01:07:49;3.50;99.90
3134;DHT22;1577;49.912;10.924;2024-02-14T01:10:16;3.50;99.90
3134;DHT22;1577;49.912;10.924;2024-02-14T01:12:41;3.50;99.90
3134;DHT22;1577;49.912;10.924;2024-02-14T01:15:07;3.50;99.90
3134;DHT22;1577;49.912;10.924;2024-02-14T01:17:33;3.60;99.90
3134;DHT22;1577;49.912;10.924;2024-02-14T01:20:01;3.60;99.90
3134;DHT22;1577;49.912;10.924;2024-02-14T01:22:28;3.60;99.90
3134;DHT22;1577;49.912;10.924;2024-02-14T01:24:53;3.60;99.90
3134;DHT22;1577;49.912;10.924;2024-02-14T01:27:19;3.60;99.90
3134;DHT22;1577;49.912;10.924;2024-02-14T01:29:48;3.70;99.90
3134;DHT22;1577;49.912;10.924;2024-02-14T01:32:13;3.70;99.90
3134;DHT22;1577;49.912;10.924;2024-02-14T01:34:39;3.70;99.90
3134;DHT22;1577;49.912;10.924;2024-02-14T01:37:05;3.70;99.90
3134;DHT22;1577;49.912;10.924;2024-02-14T01:39:31;3.80;99.90
3134;DHT22;1577;49.912;10.924;2024-02-14T01:41:57;3.80;99.90
3134;DHT22;1577;49.912;10.924;2024-02-14T01:44:22;3.90;99.90
3134;DHT22;1577;49.912;10.924;2024-02-14T01:46:48;3.80;99.90
3134;DHT22;1577;49.912;10.924;2024-02-14T01:49:15;3.80;99.90
3134;DHT22;1577;49.912;10.924;2024-02-14T01:51:43;3.80;99.90
3134;DHT22;1577;49.912;10.924;2024-02-14T01:54:14;3.80;99.90
3134;DHT22;1577;49.912;10.924;2024-02-14T01:56:40;3.90;99.90
3134;DHT22;1577;49.912;10.924;2024-02-14T01:59:07;3.90;99.90
3134;DHT22;1577;49.912;10.924;2024-02-14T02:01:33;3.90;99.90
3134;DHT22;1577;49.912;10.924;2024-02-14T02:03:59;3.90;99.90
3134;DHT22;1577;49.912;10.924;2024-02-14T02:06:25;3.90;99.90
3134;DHT22;1577;49.912;10.924;2024-02-14T02:08:51;3.90;99.90
3134;DHT22;1577;49.912;10.924;2024-02-14T02:11:17;3.90;99.90
3134;DHT22;1577;49.912;10.924;2024-02-14T02:13:43;4.00;99.90
3134;DHT22;1577;49.912;10.924;2024-02-14T02:16:09;3.90;99.90
3134;DHT22;1577;49.912;10.924;2024-02-14T02:18:35;3.90;99.90
3134;DHT22;1577;49.912;10.924;2024-02-14T02:21:00;3.90;99.90
3134;DHT22;1577;49.912;10.924;2024-02-14T02:23:29;3.90;99.90
3134;DHT22;1577;49.912;10.924;2024-02-14T02:25:55;3.90;99.90
3134;DHT22;1577;49.912;10.924;2024-02-14T02:28:21;3.90;99.90
3134;DHT22;1577;49.912;10.924;2024-02-14T02:30:46;3.90;99.90
3134;DHT22;1577;49.912;10.924;2024-02-14T02:33:12;3.90;99.90
3134;DHT22;1577;49.912;10.924;2024-02-14T02:35:41;4.00;99.90
3134;DHT22;1577;49.912;10.924;2024-02-14T02:38:07;4.00;99.90
3134;DHT22;1577;49.912;10.924;2024-02-14T02:40:33;4.00;99.90
3134;DHT22;1577;49.912;10.924;2024-02-14T02:42:58;4.00;99.90
3134;DHT22;1577;49.912;10.924;2024-02-14T02:45:25;4.00;99.90
3134;DHT22;1577;49.912;10.924;2024-02-14T02:47:51;4.10;99.90
3134;DHT22;1577;49.912;10.924;2024-02-14T02:50:17;4.10;99.90
3134;DHT22;1577;49.912;10.924;2024-02-14T02:52:43;4.10;99.90
3134;DHT22;1577;49.912;10.924;2024-02-14T02:55:08;4.00;99.90
3134;DHT22;1577;49.912;10.924;2024-02-14T02:57:34;4.00;99.90
3134;DHT22;1577;49.912;10.924;2024-02-14T03:00:03;4.10;99.90
3134;DHT22;1577;49.912;10.924;2024-02-14T03:02:31;4.10;99.90
3134;DHT22;1577;49.912;10.924;2024-02-14T03:04:56;4.10;99.90
3134;DHT22;1577;49.912;10.924;2024-02-14T03:07:22;4.10;99.90
3134;DHT22;1577;49.912;10.924;2024-02-14T03:09:49;4.10;99.90
3134;DHT22;1577;49.912;10.924;2024-02-14T03:12:14;4.10;99.90
3134;DHT22;1577;49.912;10.924;2024-02-14T03:14:41;4.10;99.90
3134;DHT22;1577;49.912;10.924;2024-02-14T03:17:09;4.10;99.90
3134;DHT22;1577;49.912;10.924;2024-02-14T03:19:35;4.20;99.90
3134;DHT22;1577;49.912;10.924;2024-02-14T03:22:04;4.10;99.90
3134;DHT22;1577;49.912;10.924;2024-02-14T03:24:31;4.10;99.90
3134;DHT22;1577;49.912;10.924;2024-02-14T03:27:00;4.10;99.90
3134;DHT22;1577;49.912;10.924;2024-02-14T03:29:26;4.20;99.90
3134;DHT22;1577;49.912;10.924;2024-02-14T03:31:52;4.20;99.90
3134;DHT22;1577;49.912;10.924;2024-02-14T03:34:19;4.30;99.90
3134;DHT22;1577;49.912;10.924;2024-02-14T03:36:44;4.30;99.90
3134;DHT22;1577;49.912;10.924;2024-02-14T03:39:10;4.30;99.90
3134;DHT22;1577;49.912;10.924;2024-02-14T03:41:36;4.30;99.90
3134;DHT22;1577;49.912;10.924;2024-02-14T03:44:02;4.30;99.90
3134;DHT22;1577;49.912;10.924;2024-02-14T03:46:29;4.30;99.90
3134;DHT22;1577;49.912;10.924;2024-02-14T03:48:55;4.40;99.90
3134;DHT22;1577;49.912;10.924;2024-02-14T03:51:23;4.40;99.90
3134;DHT22;1577;49.912;10.924;2024-02-14T03:53:49;4.40;99.90
3134;DHT22;1577;49.912;10.924;2024-02-14T03:56:15;4.30;99.90
3134;DHT22;1577;49.912;10.924;2024-02-14T03:58:41;4.40;99.90
3134;DHT22;1577;49.912;10.924;2024-02-14T04:01:07;4.40;99.90
3134;DHT22;1577;49.912;10.924;2024-02-14T04:03:34;4.30;99.90
3134;DHT22;1577;49.912;10.924;2024-02-14T04:05:59;4.30;99.90
3134;DHT22;1577;49.912;10.924;2024-02-14T04:08:26;4.30;99.90
3134;DHT22;1577;49.912;10.924;2024-02-14T04:10:51;4.30;99.90
3134;DHT22;1577;49.912;10.924;2024-02-14T04:13:19;4.30;99.90
3134;DHT22;1577;49.912;10.924;2024-02-14T04:15:44;4.40;99.90
3134;DHT22;1577;49.912;10.924;2024-02-14T04:18:11;4.40;99.90
3134;DHT22;1577;49.912;10.924;2024-02-14T04:20:37;4.40;99.90
3134;DHT22;1577;49.912;10.924;2024-02-14T04:23:06;4.40;99.90
3134;DHT22;1577;49.912;10.924;2024-02-14T04:25:33;4.40;99.90
3134;DHT22;1577;49.912;10.924;2024-02-14T04:27:59;4.40;99.90
3134;DHT22;1577;49.912;10.924;2024-02-14T04:30:25;4.40;99.90
3134;DHT22;1577;49.912;10.924;2024-02-14T04:32:51;4.50;99.90
3134;DHT22;1577;49.912;10.924;2024-02-14T04:35:19;4.40;99.90
3134;DHT22;1577;49.912;10.924;2024-02-14T04:37:45;4.50;99.90
3134;DHT22;1577;49.912;10.924;2024-02-14T04:40:12;4.50;99.90
3134;DHT22;1577;49.912;10.924;2024-02-14T04:42:38;4.40;99.90
3134;DHT22;1577;49.912;10.924;2024-02-14T04:45:04;4.50;99.90
3134;DHT22;1577;49.912;10.924;2024-02-14T04:47:29;4.60;99.90
3134;DHT22;1577;49.912;10.924;2024-02-14T04:49:55;4.50;99.90
3134;DHT22;1577;49.912;10.924;2024-02-14T04:52:21;4.50;99.90
3134;DHT22;1577;49.912;10.924;2024-02-14T04:54:46;4.60;99.90
3134;DHT22;1577;49.912;10.924;2024-02-14T04:57:12;4.60;99.90
3134;DHT22;1577;49.912;10.924;2024-02-14T04:59:38;4.60;99.90
3134;DHT22;1577;49.912;10.924;2024-02-14T05:02:03;4.60;99.90
3134;DHT22;1577;49.912;10.924;2024-02-14T05:04:29;4.60;99.90
3134;DHT22;1577;49.912;10.924;2024-02-14T05:06:55;4.70;99.90
3134;DHT22;1577;49.912;10.924;2024-02-14T05:09:20;4.70;99.90
3134;DHT22;1577;49.912;10.924;2024-02-14T05:11:46;4.70;99.90
3134;DHT22;1577;49.912;10.924;2024-02-14T05:14:11;4.70;99.90
3134;DHT22;1577;49.912;10.924;2024-02-14T05:16:37;4.80;99.90
3134;DHT22;1577;49.912;10.924;2024-02-14T05:19:03;4.70;99.90
3134;DHT22;1577;49.912;10.924;2024-02-14T05:21:28;4.70;99.90
3134;DHT22;1577;49.912;10.924;2024-02-14T05:23:54;4.70;99.90
3134;DHT22;1577;49.912;10.924;2024-02-14T05:26:19;4.70;99.90
3134;DHT22;1577;49.912;10.924;2024-02-14T05:28:45;4.70;99.90
3134;DHT22;1577;49.912;10.924;2024-02-14T05:31:11;4.70;99.90
3134;DHT22;1577;49.912;10.924;2024-02-14T05:33:37;4.60;99.90
3134;DHT22;1577;49.912;10.924;2024-02-14T05:36:03;4.70;99.90
3134;DHT22;1577;49.912;10.924;2024-02-14T05:38:28;4.60;99.90
3134;DHT22;1577;49.912;10.924;2024-02-14T05:40:55;4.60;99.90
3134;DHT22;1577;49.912;10.924;2024-02-14T05:43:21;4.60;99.90
3134;DHT22;1577;49.912;10.924;2024-02-14T05:45:47;4.70;99.90
3134;DHT22;1577;49.912;10.924;2024-02-14T05:48:13;4.70;99.90
3134;DHT22;1577;49.912;10.924;2024-02-14T05:50:40;4.70;99.90
3134;DHT22;1577;49.912;10.924;2024-02-14T05:53:05;4.70;99.90
3134;DHT22;1577;49.912;10.924;2024-02-14T05:55:31;4.70;99.90
3134;DHT22;1577;49.912;10.924;2024-02-14T05:57:57;4.70;99.90
3134;DHT22;1577;49.912;10.924;2024-02-14T06:00:24;4.70;99.90
3134;DHT22;1577;49.912;10.924;2024-02-14T06:02:50;4.70;99.90
3134;DHT22;1577;49.912;10.924;2024-02-14T06:05:16;4.80;99.90
3134;DHT22;1577;49.912;10.924;2024-02-14T06:07:42;4.90;99.90
3134;DHT22;1577;49.912;10.924;2024-02-14T06:10:10;4.90;99.90
3134;DHT22;1577;49.912;10.924;2024-02-14T06:12:36;4.90;99.90
3134;DHT22;1577;49.912;10.924;2024-02-14T06:15:02;4.90;99.90
3134;DHT22;1577;49.912;10.924;2024-02-14T06:17:28;4.90;99.90
3134;DHT22;1577;49.912;10.924;2024-02-14T06:19:54;4.90;99.90
3134;DHT22;1577;49.912;10.924;2024-02-14T06:22:19;4.90;99.90
3134;DHT22;1577;49.912;10.924;2024-02-14T06:24:46;4.90;99.90
3134;DHT22;1577;49.912;10.924;2024-02-14T06:27:13;4.80;99.90
3134;DHT22;1577;49.912;10.924;2024-02-14T06:29:42;4.90;99.90
3134;DHT22;1577;49.912;10.924;2024-02-14T06:32:08;4.90;99.90
3134;DHT22;1577;49.912;10.924;2024-02-14T06:34:33;4.90;99.90
3134;DHT22;1577;49.912;10.924;2024-02-14T06:36:59;5.00;99.90
3134;DHT22;1577;49.912;10.924;2024-02-14T06:39:24;4.90;99.90
3134;DHT22;1577;49.912;10.924;2024-02-14T06:41:50;4.90;99.90
3134;DHT22;1577;49.912;10.924;2024-02-14T06:44:16;5.00;99.90
3134;DHT22;1577;49.912;10.924;2024-02-14T06:46:41;4.90;99.90
3134;DHT22;1577;49.912;10.924;2024-02-14T06:49:08;5.00;99.90
3134;DHT22;1577;49.912;10.924;2024-02-14T06:51:34;5.10;99.90
3134;DHT22;1577;49.912;10.924;2024-02-14T06:53:59;5.10;99.90
3134;DHT22;1577;49.912;10.924;2024-02-14T06:56:25;5.20;99.90
3134;DHT22;1577;49.912;10.924;2024-02-14T06:58:51;5.20;99.90
3134;DHT22;1577;49.912;10.924;2024-02-14T07:01:19;5.30;99.90
3134;DHT22;1577;49.912;10.924;2024-02-14T07:03:48;5.30;99.90
3134;DHT22;1577;49.912;10.924;2024-02-14T07:06:14;5.40;99.90
3134;DHT22;1577;49.912;10.924;2024-02-14T07:08:43;5.40;99.90
3134;DHT22;1577;49.912;10.924;2024-02-14T07:11:09;5.50;99.90
3134;DHT22;1577;49.912;10.924;2024-02-14T07:13:34;5.50;99.90
3134;DHT22;1577;49.912;10.924;2024-02-14T07:16:00;5.50;99.90
3134;DHT22;1577;49.912;10.924;2024-02-14T07:18:26;5.60;99.90
3134;DHT22;1577;49.912;10.924;2024-02-14T07:20:52;5.70;99.90
3134;DHT22;1577;49.912;10.924;2024-02-14T07:23:19;5.70;99.90
3134;DHT22;1577;49.912;10.924;2024-02-14T07:25:44;5.70;99.90
3134;DHT22;1577;49.912;10.924;2024-02-14T07:28:10;5.70;99.90
3134;DHT22;1577;49.912;10.924;2024-02-14T07:30:36;5.80;99.90
3134;DHT22;1577;49.912;10.924;2024-02-14T07:33:02;5.80;99.90
3134;DHT22;1577;49.912;10.924;2024-02-14T07:35:27;5.80;99.90
3134;DHT22;1577;49.912;10.924;2024-02-14T07:37:54;5.90;99.90
3134;DHT22;1577;49.912;10.924;2024-02-14T07:40:21;5.90;99.90
3134;DHT22;1577;49.912;10.924;2024-02-14T07:42:46;6.00;99.90
3134;DHT22;1577;49.912;10.924;2024-02-14T07:45:12;6.00;99.90
3134;DHT22;1577;49.912;10.924;2024-02-14T07:47:38;6.00;99.90
3134;DHT22;1577;49.912;10.924;2024-02-14T07:50:08;6.10;99.90
3134;DHT22;1577;49.912;10.924;2024-02-14T07:52:34;6.10;99.90
3134;DHT22;1577;49.912;10.924;2024-02-14T07:55:00;6.10;99.90
3134;DHT22;1577;49.912;10.924;2024-02-14T07:57:25;6.10;99.90
3134;DHT22;1577;49.912;10.924;2024-02-14T07:59:51;6.10;99.90
3134;DHT22;1577;49.912;10.924;2024-02-14T08:02:17;6.20;99.90
3134;DHT22;1577;49.912;10.924;2024-02-14T08:04:43;6.40;99.90
3134;DHT22;1577;49.912;10.924;2024-02-14T08:07:09;6.40;99.90
3134;DHT22;1577;49.912;10.924;2024-02-14T08:09:35;6.50;99.90
3134;DHT22;1577;49.912;10.924;2024-02-14T08:12:01;6.40;99.90
3134;DHT22;1577;49.912;10.924;2024-02-14T08:14:27;6.40;99.90
3134;DHT22;1577;49.912;10.924;2024-02-14T08:16:53;6.40;99.90
3134;DHT22;1577;49.912;10.924;2024-02-14T08:19:18;6.50;99.90
3134;DHT22;1577;49.912;10.924;2024-02-14T08:21:45;6.50;99.90
3134;DHT22;1577;49.912;10.924;2024-02-14T08:24:11;6.60;99.90
3134;DHT22;1577;49.912;10.924;2024-02-14T08:26:36;6.50;99.90
3134;DHT22;1577;49.912;10.924;2024-02-14T08:29:02;6.50;99.90
3134;DHT22;1577;49.912;10.924;2024-02-14T08:31:29;6.50;99.90
3134;DHT22;1577;49.912;10.924;2024-02-14T08:33:54;6.40;99.90
3134;DHT22;1577;49.912;10.924;2024-02-14T08:36:20;6.50;99.90
3134;DHT22;1577;49.912;10.924;2024-02-14T08:38:45;6.50;99.90
3134;DHT22;1577;49.912;10.924;2024-02-14T08:41:12;6.50;99.90
3134;DHT22;1577;49.912;10.924;2024-02-14T08:43:37;6.40;99.90
3134;DHT22;1577;49.912;10.924;2024-02-14T08:46:03;6.40;99.90
3134;DHT22;1577;49.912;10.924;2024-02-14T08:48:34;6.50;99.90
3134;DHT22;1577;49.912;10.924;2024-02-14T08:51:00;6.60;99.90
3134;DHT22;1577;49.912;10.924;2024-02-14T08:53:26;6.60;99.90
3134;DHT22;1577;49.912;10.924;2024-02-14T08:55:51;6.60;99.90
3134;DHT22;1577;49.912;10.924;2024-02-14T08:58:17;6.70;99.90
3134;DHT22;1577;49.912;10.924;2024-02-14T09:00:42;6.70;99.90
3134;DHT22;1577;49.912;10.924;2024-02-14T09:03:08;6.70;99.90
3134;DHT22;1577;49.912;10.924;2024-02-14T09:05:34;6.70;99.90
3134;DHT22;1577;49.912;10.924;2024-02-14T09:08:00;6.70;99.90
3134;DHT22;1577;49.912;10.924;2024-02-14T09:10:25;6.70;99.90
3134;DHT22;1577;49.912;10.924;2024-02-14T09:12:51;6.70;99.90
3134;DHT22;1577;49.912;10.924;2024-02-14T09:15:16;6.80;99.90
3134;DHT22;1577;49.912;10.924;2024-02-14T09:17:42;6.80;99.90
3134;DHT22;1577;49.912;10.924;2024-02-14T09:20:09;6.90;99.90
3134;DHT22;1577;49.912;10.924;2024-02-14T09:22:35;6.90;99.90
3134;DHT22;1577;49.912;10.924;2024-02-14T09:25:01;6.90;99.90
3134;DHT22;1577;49.912;10.924;2024-02-14T09:27:30;7.00;99.90
3134;DHT22;1577;49.912;10.924;2024-02-14T09:29:56;7.00;99.90
3134;DHT22;1577;49.912;10.924;2024-02-14T09:32:21;7.10;99.90
3134;DHT22;1577;49.912;10.924;2024-02-14T09:34:47;7.20;99.90
3134;DHT22;1577;49.912;10.924;2024-02-14T09:37:12;7.30;99.90
3134;DHT22;1577;49.912;10.924;2024-02-14T09:39:38;7.40;99.90
3134;DHT22;1577;49.912;10.924;2024-02-14T09:42:09;7.50;99.90
3134;DHT22;1577;49.912;10.924;2024-02-14T09:44:36;7.60;99.90
3134;DHT22;1577;49.912;10.924;2024-02-14T09:47:03;7.70;99.90
3134;DHT22;1577;49.912;10.924;2024-02-14T09:49:31;7.80;99.90
3134;DHT22;1577;49.912;10.924;2024-02-14T09:51:57;7.90;99.90
3134;DHT22;1577;49.912;10.924;2024-02-14T09:54:24;8.00;99.90
3134;DHT22;1577;49.912;10.924;2024-02-14T09:56:52;8.10;99.90
3134;DHT22;1577;49.912;10.924;2024-02-14T09:59:20;8.30;99.90
3134;DHT22;1577;49.912;10.924;2024-02-14T10:01:46;8.40;99.90
3134;DHT22;1577;49.912;10.924;2024-02-14T10:04:13;8.40;99.90
3134;DHT22;1577;49.912;10.924;2024-02-14T10:06:39;8.40;99.90
3134;DHT22;1577;49.912;10.924;2024-02-14T10:09:04;8.50;99.90
3134;DHT22;1577;49.912;10.924;2024-02-14T10:11:33;8.60;99.90
3134;DHT22;1577;49.912;10.924;2024-02-14T10:14:00;8.60;99.90
3134;DHT22;1577;49.912;10.924;2024-02-14T10:16:29;8.50;99.90
3134;DHT22;1577;49.912;10.924;2024-02-14T10:18:55;8.60;99.90
3134;DHT22;1577;49.912;10.924;2024-02-14T10:21:21;8.60;99.90
3134;DHT22;1577;49.912;10.924;2024-02-14T10:23:47;8.70;99.90
3134;DHT22;1577;49.912;10.924;2024-02-14T10:26:17;8.80;99.90
3134;DHT22;1577;49.912;10.924;2024-02-14T10:28:43;8.80;99.90
3134;DHT22;1577;49.912;10.924;2024-02-14T10:31:10;8.90;99.90
3134;DHT22;1577;49.912;10.924;2024-02-14T10:33:36;9.00;99.90
3134;DHT22;1577;49.912;10.924;2024-02-14T10:36:02;9.10;99.90
3134;DHT22;1577;49.912;10.924;2024-02-14T10:38:32;9.20;99.90
3134;DHT22;1577;49.912;10.924;2024-02-14T10:40:59;9.20;99.90
3134;DHT22;1577;49.912;10.924;2024-02-14T10:43:26;9.10;99.90
3134;DHT22;1577;49.912;10.924;2024-02-14T10:45:55;9.20;99.90
3134;DHT22;1577;49.912;10.924;2024-02-14T10:48:22;9.20;99.90
3134;DHT22;1577;49.912;10.924;2024-02-14T10:50:53;9.10;99.90
3134;DHT22;1577;49.912;10.924;2024-02-14T10:53:20;9.10;99.90
3134;DHT22;1577;49.912;10.924;2024-02-14T10:55:48;9.20;99.90
3134;DHT22;1577;49.912;10.924;2024-02-14T10:58:16;9.20;99.90
3134;DHT22;1577;49.912;10.924;2024-02-14T11:00:42;9.20;99.90
3134;DHT22;1577;49.912;10.924;2024-02-14T11:03:09;9.30;99.90
3134;DHT22;1577;49.912;10.924;2024-02-14T11:05:48;9.50;99.90
3134;DHT22;1577;49.912;10.924;2024-02-14T11:08:20;9.60;99.90
3134;DHT22;1577;49.912;10.924;2024-02-14T11:10:56;9.60;99.90
3134;DHT22;1577;49.912;10.924;2024-02-14T11:13:25;9.70;99.90
3134;DHT22;1577;49.912;10.924;2024-02-14T11:15:52;9.80;99.90
3134;DHT22;1577;49.912;10.924;2024-02-14T11:18:27;9.90;99.90
3134;DHT22;1577;49.912;10.924;2024-02-14T11:20:55;9.90;99.90
3134;DHT22;1577;49.912;10.924;2024-02-14T11:23:23;9.90;99.90
3134;DHT22;1577;49.912;10.924;2024-02-14T11:25:49;9.80;99.90
3134;DHT22;1577;49.912;10.924;2024-02-14T11:28:15;9.80;99.90
3134;DHT22;1577;49.912;10.924;2024-02-14T11:30:42;9.80;99.90
3134;DHT22;1577;49.912;10.924;2024-02-14T11:33:20;9.90;99.90
3134;DHT22;1577;49.912;10.924;2024-02-14T11:35:47;10.10;99.90
3134;DHT22;1577;49.912;10.924;2024-02-14T11:38:13;10.30;99.90
3134;DHT22;1577;49.912;10.924;2024-02-14T11:40:39;10.50;99.90
3134;DHT22;1577;49.912;10.924;2024-02-14T11:43:11;10.60;99.90
3134;DHT22;1577;49.912;10.924;2024-02-14T11:45:38;10.70;99.90
3134;DHT22;1577;49.912;10.924;2024-02-14T11:48:13;10.70;99.90
3134;DHT22;1577;49.912;10.924;2024-02-14T11:50:43;10.80;99.90
3134;DHT22;1577;49.912;10.924;2024-02-14T11:53:10;10.80;99.90
3134;DHT22;1577;49.912;10.924;2024-02-14T11:55:37;10.90;99.90
3134;DHT22;1577;49.912;10.924;2024-02-14T11:58:13;11.00;99.90
3134;DHT22;1577;49.912;10.924;2024-02-14T12:00:40;10.90;99.90
3134;DHT22;1577;49.912;10.924;2024-02-14T12:03:07;10.80;99.90
3134;DHT22;1577;49.912;10.924;2024-02-14T12:05:35;10.90;99.90
3134;DHT22;1577;49.912;10.924;2024-02-14T12:08:03;10.90;99.90
3134;DHT22;1577;49.912;10.924;2024-02-14T12:10:31;11.00;99.90
3134;DHT22;1577;49.912;10.924;2024-02-14T12:12:58;11.00;99.90
3134;DHT22;1577;49.912;10.924;2024-02-14T12:15:26;11.00;99.90
3134;DHT22;1577;49.912;10.924;2024-02-14T12:17:51;11.00;99.90
3134;DHT22;1577;49.912;10.924;2024-02-14T12:20:22;11.00;99.90
3134;DHT22;1577;49.912;10.924;2024-02-14T12:22:51;11.00;99.90
3134;DHT22;1577;49.912;10.924;2024-02-14T12:25:17;11.00;99.90
3134;DHT22;1577;49.912;10.924;2024-02-14T12:27:50;10.90;99.90
3134;DHT22;1577;49.912;10.924;2024-02-14T12:30:17;10.90;99.90
3134;DHT22;1577;49.912;10.924;2024-02-14T12:32:43;11.00;99.90
3134;DHT22;1577;49.912;10.924;2024-02-14T12:35:09;11.00;99.90
3134;DHT22;1577;49.912;10.924;2024-02-14T12:37:36;11.00;99.90
3134;DHT22;1577;49.912;10.924;2024-02-14T12:40:03;10.90;99.90
3134;DHT22;1577;49.912;10.924;2024-02-14T12:42:31;10.80;99.90
3134;DHT22;1577;49.912;10.924;2024-02-14T12:44:57;10.80;99.90
3134;DHT22;1577;49.912;10.924;2024-02-14T12:47:23;10.70;99.90
3134;DHT22;1577;49.912;10.924;2024-02-14T12:49:50;10.60;99.90
3134;DHT22;1577;49.912;10.924;2024-02-14T12:52:16;10.60;99.90
3134;DHT22;1577;49.912;10.924;2024-02-14T12:54:42;10.60;99.90
3134;DHT22;1577;49.912;10.924;2024-02-14T12:57:08;10.60;99.90
3134;DHT22;1577;49.912;10.924;2024-02-14T12:59:34;10.50;99.90
3134;DHT22;1577;49.912;10.924;2024-02-14T13:02:00;10.50;99.90
3134;DHT22;1577;49.912;10.924;2024-02-14T13:04:26;10.50;99.90
3134;DHT22;1577;49.912;10.924;2024-02-14T13:06:51;10.60;99.90
3134;DHT22;1577;49.912;10.924;2024-02-14T13:09:17;10.60;99.90
3134;DHT22;1577;49.912;10.924;2024-02-14T13:11:43;10.50;99.90
3134;DHT22;1577;49.912;10.924;2024-02-14T13:14:09;10.60;99.90
3134;DHT22;1577;49.912;10.924;2024-02-14T13:16:34;10.70;99.90
3134;DHT22;1577;49.912;10.924;2024-02-14T13:19:00;10.80;99.90
3134;DHT22;1577;49.912;10.924;2024-02-14T13:21:26;10.80;99.90
3134;DHT22;1577;49.912;10.924;2024-02-14T13:23:52;10.80;99.90
3134;DHT22;1577;49.912;10.924;2024-02-14T13:26:17;10.70;99.90
3134;DHT22;1577;49.912;10.924;2024-02-14T13:28:43;10.80;99.90
3134;DHT22;1577;49.912;10.924;2024-02-14T13:31:08;10.80;99.90
3134;DHT22;1577;49.912;10.924;2024-02-14T13:33:35;10.60;99.90
3134;DHT22;1577;49.912;10.924;2024-02-14T13:36:01;10.60;99.90
3134;DHT22;1577;49.912;10.924;2024-02-14T13:38:27;10.60;99.90
3134;DHT22;1577;49.912;10.924;2024-02-14T13:40:54;10.60;99.90
3134;DHT22;1577;49.912;10.924;2024-02-14T13:43:19;10.70;99.90
3134;DHT22;1577;49.912;10.924;2024-02-14T13:45:46;10.60;99.90
3134;DHT22;1577;49.912;10.924;2024-02-14T13:48:13;10.60;99.90
3134;DHT22;1577;49.912;10.924;2024-02-14T13:50:39;10.60;99.90
3134;DHT22;1577;49.912;10.924;2024-02-14T13:53:08;10.60;99.90
3134;DHT22;1577;49.912;10.924;2024-02-14T13:55:33;10.60;99.90
3134;DHT22;1577;49.912;10.924;2024-02-14T13:57:59;10.70;99.90
3134;DHT22;1577;49.912;10.924;2024-02-14T14:00:25;10.70;99.90
3134;DHT22;1577;49.912;10.924;2024-02-14T14:02:51;10.60;99.90
3134;DHT22;1577;49.912;10.924;2024-02-14T14:05:16;10.60;99.90
3134;DHT22;1577;49.912;10.924;2024-02-14T14:07:42;10.60;99.90
3134;DHT22;1577;49.912;10.924;2024-02-14T14:10:08;10.50;99.90
3134;DHT22;1577;49.912;10.924;2024-02-14T14:12:34;10.50;99.90
3134;DHT22;1577;49.912;10.924;2024-02-14T14:15:01;10.40;99.90
3134;DHT22;1577;49.912;10.924;2024-02-14T14:17:27;10.40;99.90
3134;DHT22;1577;49.912;10.924;2024-02-14T14:19:53;10.40;99.90
3134;DHT22;1577;49.912;10.924;2024-02-14T14:22:19;10.30;99.90
3134;DHT22;1577;49.912;10.924;2024-02-14T14:24:45;10.30;99.90
3134;DHT22;1577;49.912;10.924;2024-02-14T14:27:11;10.40;99.90
3134;DHT22;1577;49.912;10.924;2024-02-14T14:29:40;10.30;99.90
3134;DHT22;1577;49.912;10.924;2024-02-14T14:32:10;10.30;99.90
3134;DHT22;1577;49.912;10.924;2024-02-14T14:34:36;10.40;99.90
3134;DHT22;1577;49.912;10.924;2024-02-14T14:37:02;10.40;99.90
3134;DHT22;1577;49.912;10.924;2024-02-14T14:39:28;10.40;99.90
3134;DHT22;1577;49.912;10.924;2024-02-14T14:41:54;10.40;99.90
3134;DHT22;1577;49.912;10.924;2024-02-14T14:44:26;10.40;99.90
3134;DHT22;1577;49.912;10.924;2024-02-14T14:46:53;10.40;99.90
3134;DHT22;1577;49.912;10.924;2024-02-14T14:49:18;10.40;99.90
3134;DHT22;1577;49.912;10.924;2024-02-14T14:51:44;10.30;99.90
3134;DHT22;1577;49.912;10.924;2024-02-14T14:54:09;10.40;99.90
3134;DHT22;1577;49.912;10.924;2024-02-14T14:56:35;10.40;99.90
3134;DHT22;1577;49.912;10.924;2024-02-14T14:59:01;10.30;99.90
3134;DHT22;1577;49.912;10.924;2024-02-14T15:01:32;10.30;99.90
3134;DHT22;1577;49.912;10.924;2024-02-14T15:03:59;10.30;99.90
3134;DHT22;1577;49.912;10.924;2024-02-14T15:06:25;10.30;99.90
3134;DHT22;1577;49.912;10.924;2024-02-14T15:08:51;10.30;99.90
3134;DHT22;1577;49.912;10.924;2024-02-14T15:11:17;10.30;99.90
3134;DHT22;1577;49.912;10.924;2024-02-14T15:13:46;10.30;99.90
3134;DHT22;1577;49.912;10.924;2024-02-14T15:16:12;10.30;99.90
3134;DHT22;1577;49.912;10.924;2024-02-14T15:18:39;10.30;99.90
3134;DHT22;1577;49.912;10.924;2024-02-14T15:21:06;10.30;99.90
3134;DHT22;1577;49.912;10.924;2024-02-14T15:23:32;10.30;99.90
3134;DHT22;1577;49.912;10.924;2024-02-14T15:25:58;10.30;99.90
3134;DHT22;1577;49.912;10.924;2024-02-14T15:28:32;10.30;99.90
3134;DHT22;1577;49.912;10.924;2024-02-14T15:30:59;10.40;99.90
3134;DHT22;1577;49.912;10.924;2024-02-14T15:33:44;10.30;99.90
3134;DHT22;1577;49.912;10.924;2024-02-14T15:36:10;10.20;99.90
3134;DHT22;1577;49.912;10.924;2024-02-14T15:38:40;10.20;99.90
3134;DHT22;1577;49.912;10.924;2024-02-14T15:41:06;10.20;99.90
3134;DHT22;1577;49.912;10.924;2024-02-14T15:43:32;10.20;99.90
3134;DHT22;1577;49.912;10.924;2024-02-14T15:45:59;10.20;99.90
3134;DHT22;1577;49.912;10.924;2024-02-14T15:48:25;10.20;99.90
3134;DHT22;1577;49.912;10.924;2024-02-14T15:50:54;10.30;99.90
3134;DHT22;1577;49.912;10.924;2024-02-14T15:53:19;10.30;99.90